Forside
METAR-TAF:

METAR-TAF

Lufthavne :

Banská Bystrica, Slovakiet

Breddekreds: 48-38-17N, længdekreds: 019-08-03E, højde: 318 m

METAR: fraværende

Tid: 02:24 (00:24 UTC)

Vejrudsigter

Denne rapport blev lavet for 4 timer og 54 minutter siden, kl. 19:30 UTC
Foreløbig gælder fra 12 på 21 UTC til 13 på 06 UTC
Vind 2 kt fra varierende retninger
Sigt 10 km eller mere
ingen skyer under 1500m og ingen cumulonimbus
Sandsynlighed 30% :
Midlertidig
fra 13 på 03 UTC til 13 på 06 UTC
Sigt: 1500 m
Nogle få skyer i en højde af 100 ft
tågebanker,

TAF: LZSL 121930Z 1221/1306 VRB02KT CAVOK PROB30 TEMPO 1303/1306 1500 BCFG FEW001

Vejrobservationer og prognoser fra mere end 4000 lufthavne (METAR og TAF).

De gule og røde prikker repræsenterer de meteorologiske stationer.

Flyt musen over at se navnet på stationen.

Så klik over at se vejr observationer og prognoser.

At skifte det kort: Klik på de grønne knapper med et sort kors for at zoome ind; på den grønne knap med en bindestreg for at zoome ud; eller på de grønne pile for tilstødende kort.


METAR-TAF: